Marysville, KS (66508)

4:06 AM CST on February 11, 2016 (GMT -0600)
N0NB | | Change Station
CLOSE
Current Station
Personal Weather Station
Location: Bremen, KS
Elevation: 1318 ft
Nearby Weather Stations

Elev 1318 ft 39.91 °N, 96.77 °W | Updated 8 seconds ago

Partly Cloudy
Partly Cloudy
25.9 °F
Feels Like 26 °F
N
1.0
Wind Variable Wind from NE
Gusts 4.0 mph

Today
High -- | Low -- °F
--% Chance of Precip.
Yesterday
High -- | Low -- °F
Precip. -- in
Pressure 30.20 in
Visibility 7.0 miles
Clouds Overcast 700 ft
Windchill 26 °F
Dew Point 24 °F
Humidity 91%
Rainfall 0.00 in
Snow Depth Not available.
7:24 AM 5:57 PM
Waxing Crescent, 11% visible
METAR KBIE 110955Z AUTO 02007KT 7SM OVC007 M05/M06 A3020 RMK AO2 T10501061
Pressure 30.20 in
Visibility 7.0 miles
Clouds Overcast 700 ft
Windchill 26 °F
Dew Point 24 °F
Humidity 91%
Rainfall 0.00 in
Snow Depth Not available.
7:24 AM 5:57 PM
Waxing Crescent, 11% visible
METAR KBIE 110955Z AUTO 02007KT 7SM OVC007 M05/M06 A3020 RMK AO2 T10501061

10-Day Weather Forecast

Almanac

Astronomy

Feb. 11, 2016 Rise Set
Actual Time
Civil Twilight
Nautical Twilight
Astronomical Twilight
Moon
Length of Visible Light
Length of Day
Tomorrow will be .
, % of the Moon is Illuminated

Today's Extremes

State Highs State Lows

Community

WunderPhotos

Upload Photos

1,892,030 photos uploaded!

WunderBlog® & News

Nearby

Air Quality

  Air Quality AQ Index Pollutant
Not available.

Snow Depth

Station Depth Elevation

Earthquake Activity

City Distance Mag. Time & Date
Minimum magnitude displayed is 2.5.

Coastal Water Temperatures

Place Temperature

Stations

Nearby Weather Stations

Station Location Temp. Windchill Dew Point Humidity Wind Precip. Elev Updated Type
                   

Watches & Warnings

There are currently no watches in effect.